Kakushu Maru — JG5688 — position and weather

sailwx.info

Track history (hours):
 
Tides and Currents Weather Stations Pressure Air Temp Water Temp Dewpoint Dewpoint Depression Visibility Wind Speed Wind Dir Waves Ship Positions

Kakushu Maru

Last reported at 2018-Apr-24 10:20 UTC. Time now 2018-Apr-24 10:41 UTC.
Position N 41°54' E 141°14'.

Length 105 m; draft 6.3 m.

Type: Tanker. MMSI: 431101016.

Date/timePositionNaut miles runAvg speedWind from/ knotsBaromVisibWave heightAir tempDewpointWater temp
2018-Apr-24 10:20N 41°54' E 141°14'413.8
2018-Apr-24 10:00N 41°50' E 141°17'713.8
2018-Apr-24 09:30N 41°44' E 141°22'713.4
2018-Apr-24 09:01N 41°38' E 141°27'612.6
2018-Apr-24 08:30N 41°33' E 141°31'612.7
2018-Apr-24 08:00N 41°27' E 141°34'  
2018-Apr-19 15:09N 41°24' E 141°34'214.1
2018-Apr-19 15:00N 41°26' E 141°34'713.5
2018-Apr-19 14:30N 41°30' E 141°27'715.0
2018-Apr-19 14:00N 41°32' E 141°17'816.6
2018-Apr-19 13:31N 41°34' E 141°06'816.0
2018-Apr-19 13:00N 41°36' E 140°56'815.2
2018-Apr-19 12:30N 41°32' E 140°47'815.4
2018-Apr-19 12:01N 41°28' E 140°38'816.7
2018-Apr-19 11:30N 41°23' E 140°29'917.2
2018-Apr-19 11:00N 41°18' E 140°19'1215.3
2018-Apr-19 10:12N 41°08' E 140°10'513.9
2018-Apr-19 09:51N 41°04' E 140°06'814.1
2018-Apr-19 09:18N 40°58' E 140°01'714.1
2018-Apr-19 08:51N 40°52' E 139°57'8 0.4
2018-Apr-18 14:30N 40°45' E 139°51'713.3
2018-Apr-18 13:57N 40°51' E 139°56'613.6
2018-Apr-18 13:30N 40°56' E 140°00'713.5
2018-Apr-18 13:01N 41°02' E 140°05'713.6
2018-Apr-18 12:29N 41°08' E 140°10'612.6
2018-Apr-18 12:01N 41°13' E 140°14'612.2
2018-Apr-18 11:30N 41°18' E 140°19'611.5
2018-Apr-18 10:59N 41°22' E 140°25'510.6
2018-Apr-18 10:30N 41°24' E 140°31'510.6
2018-Apr-18 10:00N 41°28' E 140°37'611.4
2018-Apr-18 09:31N 41°31' E 140°43'612.1
2018-Apr-18 09:00N 41°34' E 140°50'611.1
2018-Apr-18 08:30N 41°35' E 140°57'611.9
2018-Apr-18 08:00N 41°34' E 141°05'612.0
2018-Apr-18 07:31N 41°32' E 141°13'712.4
2018-Apr-18 06:58N 41°30' E 141°21'612.9
2018-Apr-18 06:31N 41°28' E 141°29'  
2018-Apr-15 05:06N 41°26' E 141°33'412.5
2018-Apr-15 04:47N 41°30' E 141°32'411.7
2018-Apr-15 04:26N 41°33' E 141°30'611.7
2018-Apr-15 03:58N 41°38' E 141°27'812.0
2018-Apr-15 03:19N 41°45' E 141°21'812.1
2018-Apr-15 02:39N 41°52' E 141°16'  
Track history (hours):
 
Tides and Currents Weather Stations Pressure Air Temp Water Temp Dewpoint Dewpoint Depression Visibility Wind Speed Wind Dir Waves Ship Positions

Kakushu Maru

Last reported at 2018-Apr-24 10:20 UTC. Time now 2018-Apr-24 10:41 UTC.
Position N 41°54' E 141°14'.

Length 105 m; draft 6.3 m.

Type: Tanker. MMSI: 431101016.

Date/timePositionNaut miles runAvg speedWind from/ knotsBaromVisibWave heightAir tempDewpointWater temp
2018-Apr-24 10:20N 41°54' E 141°14'413.8
2018-Apr-24 10:00N 41°50' E 141°17'713.8
2018-Apr-24 09:30N 41°44' E 141°22'713.4
2018-Apr-24 09:01N 41°38' E 141°27'612.6
2018-Apr-24 08:30N 41°33' E 141°31'612.7
2018-Apr-24 08:00N 41°27' E 141°34'  
2018-Apr-19 15:09N 41°24' E 141°34'214.1
2018-Apr-19 15:00N 41°26' E 141°34'713.5
2018-Apr-19 14:30N 41°30' E 141°27'715.0
2018-Apr-19 14:00N 41°32' E 141°17'816.6
2018-Apr-19 13:31N 41°34' E 141°06'816.0
2018-Apr-19 13:00N 41°36' E 140°56'815.2
2018-Apr-19 12:30N 41°32' E 140°47'815.4
2018-Apr-19 12:01N 41°28' E 140°38'816.7
2018-Apr-19 11:30N 41°23' E 140°29'917.2
2018-Apr-19 11:00N 41°18' E 140°19'1215.3
2018-Apr-19 10:12N 41°08' E 140°10'513.9
2018-Apr-19 09:51N 41°04' E 140°06'814.1
2018-Apr-19 09:18N 40°58' E 140°01'714.1
2018-Apr-19 08:51N 40°52' E 139°57'8 0.4
2018-Apr-18 14:30N 40°45' E 139°51'713.3
2018-Apr-18 13:57N 40°51' E 139°56'613.6
2018-Apr-18 13:30N 40°56' E 140°00'713.5
2018-Apr-18 13:01N 41°02' E 140°05'713.6
2018-Apr-18 12:29N 41°08' E 140°10'612.6
2018-Apr-18 12:01N 41°13' E 140°14'612.2
2018-Apr-18 11:30N 41°18' E 140°19'611.5
2018-Apr-18 10:59N 41°22' E 140°25'510.6
2018-Apr-18 10:30N 41°24' E 140°31'510.6
2018-Apr-18 10:00N 41°28' E 140°37'611.4
2018-Apr-18 09:31N 41°31' E 140°43'612.1
2018-Apr-18 09:00N 41°34' E 140°50'611.1
2018-Apr-18 08:30N 41°35' E 140°57'611.9
2018-Apr-18 08:00N 41°34' E 141°05'612.0
2018-Apr-18 07:31N 41°32' E 141°13'712.4
2018-Apr-18 06:58N 41°30' E 141°21'612.9
2018-Apr-18 06:31N 41°28' E 141°29'  
2018-Apr-15 05:06N 41°26' E 141°33'412.5
2018-Apr-15 04:47N 41°30' E 141°32'411.7
2018-Apr-15 04:26N 41°33' E 141°30'611.7
2018-Apr-15 03:58N 41°38' E 141°27'812.0
2018-Apr-15 03:19N 41°45' E 141°21'812.1
2018-Apr-15 02:39N 41°52' E 141°16'  

Dump ship's entire track history